KRSP

NSF Thurmont

NSF Thurmont, Maryland, USA
METAR KRSP 241354Z AUTO 30008G17KT 10SM CLR 23/18 A2997 RMK AO2 SLP141 T02280178 $
Observed Flight Rules
Jun-24 @ 13:54 UTC (an hour ago) Visual Flight Rules
Wind Visibility Clouds
300° at 8 knots
 Gusting to 17 knots
10 miles
  • Clear skies
Temperatures Readings
Current 23°C / 73°F
Dewpoint 18°C / 64°F
Humidity 74%
Altimeter 29.97" Hg
Pressure 1014.1 hPa
Elevation 561
METAR KRSP 241354Z AUTO 30008G17KT 10SM CLR 23/18 A2997 RMK AO2 SLP141 T02280178 $
Observed Flight Rules
Jun-24 @ 13:54 UTC
(an hour ago)
VFR
Wind Visibility
300° at 8 knots
 Gusting to 17 knots
10 miles
Clouds
  • Clear skies
Temperature Dewpoint
23°C / 73°F 18°C / 64°F
Humidity Altimeter Pressure
74% 29.97" Hg 1014.1 hPa